LIMF/TRN METAR and TAF weather

Enter ICAO airport designator
Station Type Date Time Source
LIMF METAR 2020/12/06 01:20 UTC NOAA

LIMF 060120Z 34002KT 2000 BR SCT004 BKN035 02/02 Q0998


Station Type Date Time Source
LIMF Decoded METAR 2020/12/06 01:20 UTC NOAA

Torino / Caselle, Italy (LIMF) 45-13N 007-39E 287M
Dec 05, 2020 - 08:20 PM EST / 2020.12.06 0120 UTC
Wind: from the NNW (340 degrees) at 2 MPH (2 KT):0
Visibility: 1 mile(s):0
Sky conditions: mostly cloudy
Weather: mist
Temperature: 35 F (2 C)
Dew Point: 35 F (2 C)
Relative Humidity: 100%
Pressure (altimeter): 29.47 in. Hg (0998 hPa)
ob: LIMF 060120Z 34002KT 2000 BR SCT004 BKN035 02/02 Q0998
cycle: 1

Station Type Date Time Source
LIMF TAF 2020/12/05 18:21 UTC NOAA

TAF LIMF 051700Z 0518/0618 VRB05KT 3000 BR BKN012
TEMPO 0518/0602 1200 RA
TEMPO 0603/0608 0600 FG SCT005

Example: see airport list